sensor_id;sensor_type;location;lat;lon;timestamp;P1;durP1;ratioP1;P2;durP2;ratioP2
20369;SDS011;10344;47.592;9.600;2023-02-05T00:01:36;9.27;;;5.85;;
20369;SDS011;10344;47.592;9.600;2023-02-05T00:18:24;6.80;;;5.07;;
20369;SDS011;10344;47.592;9.600;2023-02-05T00:47:59;9.57;;;5.35;;
20369;SDS011;10344;47.592;9.600;2023-02-05T00:54:12;9.48;;;5.20;;
20369;SDS011;10344;47.592;9.600;2023-02-05T03:05:31;8.43;;;6.13;;
20369;SDS011;10344;47.592;9.600;2023-02-05T03:12:24;7.90;;;6.03;;
20369;SDS011;10344;47.592;9.600;2023-02-05T04:04:56;9.80;;;6.88;;
20369;SDS011;10344;47.592;9.600;2023-02-05T04:07:49;8.15;;;6.32;;
20369;SDS011;10344;47.592;9.600;2023-02-05T04:10:19;7.65;;;5.93;;
20369;SDS011;10344;47.592;9.600;2023-02-05T04:12:47;9.07;;;6.32;;
20369;SDS011;10344;47.592;9.600;2023-02-05T04:15:38;11.05;;;7.15;;
20369;SDS011;10344;47.592;9.600;2023-02-05T04:18:45;10.98;;;7.60;;
20369;SDS011;10344;47.592;9.600;2023-02-05T04:21:40;10.43;;;6.60;;
20369;SDS011;10344;47.592;9.600;2023-02-05T04:24:29;14.20;;;8.40;;
20369;SDS011;10344;47.592;9.600;2023-02-05T04:27:00;12.77;;;7.90;;
20369;SDS011;10344;47.592;9.600;2023-02-05T04:29:55;15.30;;;8.95;;
20369;SDS011;10344;47.592;9.600;2023-02-05T04:33:16;15.95;;;9.55;;
20369;SDS011;10344;47.592;9.600;2023-02-05T04:35:45;14.18;;;8.73;;
20369;SDS011;10344;47.592;9.600;2023-02-05T04:38:34;13.80;;;9.00;;
20369;SDS011;10344;47.592;9.600;2023-02-05T04:41:02;12.70;;;8.52;;
20369;SDS011;10344;47.592;9.600;2023-02-05T04:43:39;14.02;;;9.10;;
20369;SDS011;10344;47.592;9.600;2023-02-05T04:46:10;14.10;;;8.75;;
20369;SDS011;10344;47.592;9.600;2023-02-05T04:48:40;13.55;;;8.90;;
20369;SDS011;10344;47.592;9.600;2023-02-05T04:57:50;11.57;;;7.93;;
20369;SDS011;10344;47.592;9.600;2023-02-05T05:00:24;12.07;;;8.68;;
20369;SDS011;10344;47.592;9.600;2023-02-05T05:02:52;10.63;;;7.28;;
20369;SDS011;10344;47.592;9.600;2023-02-05T05:05:33;10.00;;;7.63;;
20369;SDS011;10344;47.592;9.600;2023-02-05T05:39:29;12.27;;;7.85;;
20369;SDS011;10344;47.592;9.600;2023-02-05T05:42:56;9.65;;;7.25;;
20369;SDS011;10344;47.592;9.600;2023-02-05T05:56:39;11.30;;;8.32;;
20369;SDS011;10344;47.592;9.600;2023-02-05T06:20:32;9.75;;;7.60;;
20369;SDS011;10344;47.592;9.600;2023-02-05T06:30:51;10.63;;;7.70;;
20369;SDS011;10344;47.592;9.600;2023-02-05T06:38:06;11.18;;;7.60;;
20369;SDS011;10344;47.592;9.600;2023-02-05T06:41:03;9.80;;;7.07;;
20369;SDS011;10344;47.592;9.600;2023-02-05T06:43:56;10.23;;;7.82;;
20369;SDS011;10344;47.592;9.600;2023-02-05T06:47:31;12.07;;;8.63;;
20369;SDS011;10344;47.592;9.600;2023-02-05T06:56:48;13.48;;;10.15;;
20369;SDS011;10344;47.592;9.600;2023-02-05T07:00:11;14.80;;;10.75;;
20369;SDS011;10344;47.592;9.600;2023-02-05T07:03:16;11.85;;;8.85;;
20369;SDS011;10344;47.592;9.600;2023-02-05T07:06:10;14.20;;;10.07;;
20369;SDS011;10344;47.592;9.600;2023-02-05T07:08:45;11.35;;;9.57;;
20369;SDS011;10344;47.592;9.600;2023-02-05T07:11:11;12.65;;;10.15;;
20369;SDS011;10344;47.592;9.600;2023-02-05T07:13:38;12.80;;;8.90;;
20369;SDS011;10344;47.592;9.600;2023-02-05T07:16:04;11.00;;;8.67;;
20369;SDS011;10344;47.592;9.600;2023-02-05T07:18:34;12.70;;;8.82;;
20369;SDS011;10344;47.592;9.600;2023-02-05T07:21:04;12.82;;;8.82;;
20369;SDS011;10344;47.592;9.600;2023-02-05T07:28:01;12.68;;;8.98;;
20369;SDS011;10344;47.592;9.600;2023-02-05T07:31:19;15.45;;;10.15;;
20369;SDS011;10344;47.592;9.600;2023-02-05T07:34:25;10.98;;;8.85;;
20369;SDS011;10344;47.592;9.600;2023-02-05T07:37:46;14.00;;;9.88;;
20369;SDS011;10344;47.592;9.600;2023-02-05T07:43:40;14.57;;;10.20;;
20369;SDS011;10344;47.592;9.600;2023-02-05T07:46:07;14.95;;;10.07;;
20369;SDS011;10344;47.592;9.600;2023-02-05T07:51:01;13.30;;;9.98;;
20369;SDS011;10344;47.592;9.600;2023-02-05T07:53:27;12.57;;;9.25;;
20369;SDS011;10344;47.592;9.600;2023-02-05T07:55:52;16.40;;;10.50;;
20369;SDS011;10344;47.592;9.600;2023-02-05T07:58:18;14.00;;;10.20;;
20369;SDS011;10344;47.592;9.600;2023-02-05T08:00:44;14.27;;;9.88;;
20369;SDS011;10344;47.592;9.600;2023-02-05T08:05:51;14.23;;;10.32;;
20369;SDS011;10344;47.592;9.600;2023-02-05T08:14:47;14.75;;;9.75;;
20369;SDS011;10344;47.592;9.600;2023-02-05T08:17:13;13.25;;;9.88;;
20369;SDS011;10344;47.592;9.600;2023-02-05T08:19:39;12.77;;;9.73;;
20369;SDS011;10344;47.592;9.600;2023-02-05T08:56:09;15.13;;;10.30;;
20369;SDS011;10344;47.592;9.600;2023-02-05T08:58:37;14.40;;;10.38;;
20369;SDS011;10344;47.592;9.600;2023-02-05T09:01:06;14.27;;;11.05;;
20369;SDS011;10344;47.592;9.600;2023-02-05T09:03:34;14.93;;;10.57;;
20369;SDS011;10344;47.592;9.600;2023-02-05T09:06:12;11.57;;;9.45;;
20369;SDS011;10344;47.592;9.600;2023-02-05T09:08:41;12.37;;;9.90;;
20369;SDS011;10344;47.592;9.600;2023-02-05T09:11:09;12.05;;;9.57;;
20369;SDS011;10344;47.592;9.600;2023-02-05T09:13:37;14.05;;;9.73;;
20369;SDS011;10344;47.592;9.600;2023-02-05T09:16:03;10.80;;;8.90;;
20369;SDS011;10344;47.592;9.600;2023-02-05T09:18:29;12.07;;;8.80;;
20369;SDS011;10344;47.592;9.600;2023-02-05T09:20:55;11.13;;;8.45;;
20369;SDS011;10344;47.592;9.600;2023-02-05T09:23:23;12.88;;;8.10;;
20369;SDS011;10344;47.592;9.600;2023-02-05T09:25:48;9.23;;;6.80;;
20369;SDS011;10344;47.592;9.600;2023-02-05T09:28:14;10.05;;;7.68;;
20369;SDS011;10344;47.592;9.600;2023-02-05T09:30:41;10.00;;;7.23;;
20369;SDS011;10344;47.592;9.600;2023-02-05T09:33:08;10.15;;;6.93;;
20369;SDS011;10344;47.592;9.600;2023-02-05T09:35:35;10.48;;;7.70;;
20369;SDS011;10344;47.592;9.600;2023-02-05T09:38:00;9.70;;;7.53;;
20369;SDS011;10344;47.592;9.600;2023-02-05T09:46:20;12.00;;;9.07;;
20369;SDS011;10344;47.592;9.600;2023-02-05T09:51:36;9.98;;;8.25;;
20369;SDS011;10344;47.592;9.600;2023-02-05T09:54:10;12.15;;;8.55;;
20369;SDS011;10344;47.592;9.600;2023-02-05T09:56:49;11.30;;;8.50;;
20369;SDS011;10344;47.592;9.600;2023-02-05T09:59:18;11.48;;;8.32;;
20369;SDS011;10344;47.592;9.600;2023-02-05T10:04:25;12.80;;;9.18;;
20369;SDS011;10344;47.592;9.600;2023-02-05T10:07:08;13.00;;;9.30;;
20369;SDS011;10344;47.592;9.600;2023-02-05T10:09:54;14.00;;;9.43;;
20369;SDS011;10344;47.592;9.600;2023-02-05T10:13:43;12.80;;;9.75;;
20369;SDS011;10344;47.592;9.600;2023-02-05T10:21:46;13.38;;;8.85;;
20369;SDS011;10344;47.592;9.600;2023-02-05T10:27:23;12.32;;;8.27;;
20369;SDS011;10344;47.592;9.600;2023-02-05T10:30:02;10.77;;;8.68;;
20369;SDS011;10344;47.592;9.600;2023-02-05T10:32:58;14.45;;;8.48;;
20369;SDS011;10344;47.592;9.600;2023-02-05T10:35:35;9.93;;;8.07;;
20369;SDS011;10344;47.592;9.600;2023-02-05T10:38:24;11.25;;;7.80;;
20369;SDS011;10344;47.592;9.600;2023-02-05T10:40:54;10.70;;;7.28;;
20369;SDS011;10344;47.592;9.600;2023-02-05T10:45:58;9.25;;;7.07;;
20369;SDS011;10344;47.592;9.600;2023-02-05T10:50:59;9.98;;;7.38;;
20369;SDS011;10344;47.592;9.600;2023-02-05T10:53:30;10.88;;;8.13;;
20369;SDS011;10344;47.592;9.600;2023-02-05T10:55:56;9.38;;;7.85;;
20369;SDS011;10344;47.592;9.600;2023-02-05T10:58:27;10.77;;;7.22;;
20369;SDS011;10344;47.592;9.600;2023-02-05T11:01:05;9.40;;;7.05;;
20369;SDS011;10344;47.592;9.600;2023-02-05T11:03:35;10.50;;;8.27;;
20369;SDS011;10344;47.592;9.600;2023-02-05T11:06:02;10.38;;;7.50;;
20369;SDS011;10344;47.592;9.600;2023-02-05T11:08:35;9.25;;;8.18;;
20369;SDS011;10344;47.592;9.600;2023-02-05T11:11:03;10.43;;;7.50;;
20369;SDS011;10344;47.592;9.600;2023-02-05T11:13:30;10.65;;;7.68;;
20369;SDS011;10344;47.592;9.600;2023-02-05T11:16:04;8.77;;;7.28;;
20369;SDS011;10344;47.592;9.600;2023-02-05T11:18:37;8.98;;;7.18;;
20369;SDS011;10344;47.592;9.600;2023-02-05T11:21:05;9.50;;;7.63;;
20369;SDS011;10344;47.592;9.600;2023-02-05T11:23:34;12.00;;;8.13;;
20369;SDS011;10344;47.592;9.600;2023-02-05T11:26:09;12.82;;;8.93;;
20369;SDS011;10344;47.592;9.600;2023-02-05T11:28:45;10.60;;;8.27;;
20369;SDS011;10344;47.592;9.600;2023-02-05T11:33:46;10.40;;;7.75;;
20369;SDS011;10344;47.592;9.600;2023-02-05T11:36:16;10.43;;;7.75;;
20369;SDS011;10344;47.592;9.600;2023-02-05T11:38:45;9.50;;;7.03;;
20369;SDS011;10344;47.592;9.600;2023-02-05T11:41:26;9.57;;;7.37;;
20369;SDS011;10344;47.592;9.600;2023-02-05T11:43:52;11.90;;;7.95;;
20369;SDS011;10344;47.592;9.600;2023-02-05T11:46:20;9.88;;;8.07;;
20369;SDS011;10344;47.592;9.600;2023-02-05T11:51:26;8.80;;;7.00;;
20369;SDS011;10344;47.592;9.600;2023-02-05T11:54:18;11.10;;;8.27;;
20369;SDS011;10344;47.592;9.600;2023-02-05T12:07:40;10.02;;;7.30;;
20369;SDS011;10344;47.592;9.600;2023-02-05T12:10:14;9.37;;;6.93;;
20369;SDS011;10344;47.592;9.600;2023-02-05T12:15:26;9.15;;;6.38;;
20369;SDS011;10344;47.592;9.600;2023-02-05T12:20:43;11.10;;;7.30;;
20369;SDS011;10344;47.592;9.600;2023-02-05T12:26:40;9.77;;;6.90;;
20369;SDS011;10344;47.592;9.600;2023-02-05T12:31:58;8.45;;;6.45;;
20369;SDS011;10344;47.592;9.600;2023-02-05T12:45:18;9.27;;;6.60;;
20369;SDS011;10344;47.592;9.600;2023-02-05T12:48:20;8.88;;;6.88;;
20369;SDS011;10344;47.592;9.600;2023-02-05T12:59:10;9.57;;;7.20;;
20369;SDS011;10344;47.592;9.600;2023-02-05T13:01:41;9.77;;;7.60;;
20369;SDS011;10344;47.592;9.600;2023-02-05T13:04:24;9.45;;;7.57;;
20369;SDS011;10344;47.592;9.600;2023-02-05T13:06:56;11.65;;;8.30;;
20369;SDS011;10344;47.592;9.600;2023-02-05T13:10:04;10.80;;;7.68;;
20369;SDS011;10344;47.592;9.600;2023-02-05T13:12:38;10.93;;;8.10;;
20369;SDS011;10344;47.592;9.600;2023-02-05T13:18:26;11.00;;;7.82;;
20369;SDS011;10344;47.592;9.600;2023-02-05T13:20:57;9.93;;;7.50;;
20369;SDS011;10344;47.592;9.600;2023-02-05T13:23:47;11.40;;;8.07;;
20369;SDS011;10344;47.592;9.600;2023-02-05T13:26:37;11.55;;;7.88;;
20369;SDS011;10344;47.592;9.600;2023-02-05T13:29:27;10.63;;;7.27;;
20369;SDS011;10344;47.592;9.600;2023-02-05T13:32:03;10.85;;;7.05;;
20369;SDS011;10344;47.592;9.600;2023-02-05T13:34:35;10.13;;;7.20;;
20369;SDS011;10344;47.592;9.600;2023-02-05T13:39:40;11.00;;;7.97;;
20369;SDS011;10344;47.592;9.600;2023-02-05T13:59:18;11.00;;;7.68;;
20369;SDS011;10344;47.592;9.600;2023-02-05T14:02:20;11.85;;;8.50;;
20369;SDS011;10344;47.592;9.600;2023-02-05T14:05:09;10.63;;;7.63;;
20369;SDS011;10344;47.592;9.600;2023-02-05T14:10:32;13.15;;;9.00;;
20369;SDS011;10344;47.592;9.600;2023-02-05T14:13:10;12.93;;;8.50;;
20369;SDS011;10344;47.592;9.600;2023-02-05T14:15:45;10.70;;;8.43;;
20369;SDS011;10344;47.592;9.600;2023-02-05T14:22:04;12.45;;;8.15;;
20369;SDS011;10344;47.592;9.600;2023-02-05T14:24:52;14.20;;;9.13;;
20369;SDS011;10344;47.592;9.600;2023-02-05T14:30:51;10.57;;;6.55;;
20369;SDS011;10344;47.592;9.600;2023-02-05T14:32:55;9.25;;;6.20;;
20369;SDS011;10344;47.592;9.600;2023-02-05T14:38:13;10.52;;;6.50;;
20369;SDS011;10344;47.592;9.600;2023-02-05T14:40:39;9.03;;;6.00;;
20369;SDS011;10344;47.592;9.600;2023-02-05T14:43:13;9.60;;;6.65;;
20369;SDS011;10344;47.592;9.600;2023-02-05T14:45:46;10.73;;;6.47;;
20369;SDS011;10344;47.592;9.600;2023-02-05T14:48:21;11.57;;;6.22;;
20369;SDS011;10344;47.592;9.600;2023-02-05T14:53:56;10.20;;;6.63;;
20369;SDS011;10344;47.592;9.600;2023-02-05T14:56:53;11.50;;;6.40;;
20369;SDS011;10344;47.592;9.600;2023-02-05T14:59:42;9.33;;;6.10;;
20369;SDS011;10344;47.592;9.600;2023-02-05T15:18:31;7.78;;;5.80;;
20369;SDS011;10344;47.592;9.600;2023-02-05T16:09:14;12.27;;;9.90;;
20369;SDS011;10344;47.592;9.600;2023-02-05T17:24:47;22.15;;;16.27;;
20369;SDS011;10344;47.592;9.600;2023-02-05T17:38:33;17.83;;;14.40;;
